Time;durP1;ratioP1;P1;durP2;ratioP2;P2;SDS_P1;SDS_P2;PMS_P1;PMS_P2;Temp;Humidity;BMP_temperature;BMP_pressure;BME280_temperature;BME280_humidity;BME280_pressure;Samples;Min_cycle;Max_cycle;Signal;HPM_P1;HPM_P2
2021/01/26 00:02:23;;;;;;;22.17;13.93;;;7.70;80.00;;;;;;5052796;28;20166;-78
2021/01/26 00:04:49;;;;;;;25.23;14.27;;;7.70;80.10;;;;;;5053669;28;20534;-76
2021/01/26 00:07:15;;;;;;;20.33;13.40;;;7.70;80.20;;;;;;5052299;28;20063;-76
2021/01/26 00:09:40;;;;;;;22.30;14.02;;;7.70;80.10;;;;;;5052454;28;20043;-75
2021/01/26 00:12:08;;;;;;;21.60;12.80;;;7.70;80.10;;;;;;5052274;28;20040;-77
2021/01/26 00:14:34;;;;;;;17.83;10.57;;;7.70;80.10;;;;;;5052117;28;20489;-77
2021/01/26 00:17:00;;;;;;;19.67;13.18;;;7.70;80.20;;;;;;5053823;28;20043;-77
2021/01/26 00:19:26;;;;;;;19.13;12.73;;;7.70;80.10;;;;;;5053332;28;20148;-76
2021/01/26 00:21:52;;;;;;;17.95;12.40;;;7.70;80.10;;;;;;5053202;28;20489;-78
2021/01/26 00:24:18;;;;;;;19.23;11.95;;;7.60;80.00;;;;;;5052459;28;20397;-77
2021/01/26 00:26:44;;;;;;;18.35;11.13;;;7.70;80.10;;;;;;5051900;28;20084;-76
2021/01/26 00:29:10;;;;;;;19.40;12.23;;;7.60;80.10;;;;;;5053340;28;20052;-76
2021/01/26 00:31:37;;;;;;;21.05;13.13;;;7.60;80.20;;;;;;5051971;28;20087;-74
2021/01/26 00:34:03;;;;;;;18.83;10.95;;;7.60;80.20;;;;;;5035350;28;20029;-74
2021/01/26 00:36:29;;;;;;;16.48;11.40;;;7.60;80.20;;;;;;5053252;28;20033;-76
2021/01/26 00:38:55;;;;;;;17.52;11.25;;;7.60;80.10;;;;;;5053419;28;20098;-74
2021/01/26 00:41:21;;;;;;;17.30;11.38;;;7.60;80.10;;;;;;5053530;28;20033;-77
2021/01/26 00:43:47;;;;;;;17.52;11.38;;;7.60;80.10;;;;;;5053128;28;20037;-77
2021/01/26 00:46:16;;;;;;;15.43;11.25;;;7.70;80.10;;;;;;5052994;28;20508;-77
2021/01/26 00:48:42;;;;;;;17.50;11.50;;;7.60;80.00;;;;;;5053355;28;20127;-77
2021/01/26 00:51:08;;;;;;;18.05;12.25;;;7.60;79.90;;;;;;5051517;28;20140;-75
2021/01/26 00:53:35;;;;;;;17.38;11.68;;;7.60;80.00;;;;;;5052060;28;20439;-74
2021/01/26 00:56:07;;;;;;;16.13;11.60;;;7.60;80.00;;;;;;5053080;28;20519;-75
2021/01/26 00:58:33;;;;;;;18.65;12.02;;;7.60;80.00;;;;;;5051470;28;20092;-76
2021/01/26 01:00:59;;;;;;;16.10;11.55;;;7.60;80.50;;;;;;5035235;28;20049;-74
2021/01/26 01:03:29;;;;;;;19.13;12.93;;;7.60;80.00;;;;;;5035160;28;20060;-75
2021/01/26 01:05:55;;;;;;;15.45;10.63;;;7.60;80.00;;;;;;5052486;28;20037;-76
2021/01/26 01:08:21;;;;;;;17.65;11.32;;;7.60;80.00;;;;;;5052854;28;20037;-75
2021/01/26 01:10:50;;;;;;;18.08;12.23;;;7.60;80.00;;;;;;5052505;28;20025;-74
2021/01/26 01:13:15;;;;;;;15.07;11.27;;;7.60;80.00;;;;;;5052663;28;20048;-76
2021/01/26 01:15:42;;;;;;;17.83;12.57;;;7.60;80.00;;;;;;5051180;28;20033;-74
2021/01/26 01:18:09;;;;;;;19.20;12.90;;;7.60;80.00;;;;;;5034617;28;20033;-75
2021/01/26 01:20:35;;;;;;;16.88;12.18;;;7.60;80.00;;;;;;5052423;28;20033;-74
2021/01/26 01:23:01;;;;;;;19.70;11.90;;;7.60;80.00;;;;;;5051322;28;20041;-75
2021/01/26 01:25:27;;;;;;;18.23;12.55;;;7.60;79.90;;;;;;5034482;28;20052;-77
2021/01/26 01:27:53;;;;;;;19.58;12.95;;;7.60;80.00;;;;;;5052493;28;20435;-77
2021/01/26 01:30:27;;;;;;;19.35;12.75;;;7.50;80.00;;;;;;5052455;28;20111;-77
2021/01/26 01:32:53;;;;;;;18.13;12.32;;;7.50;80.00;;;;;;5051376;28;20044;-76
2021/01/26 01:35:19;;;;;;;19.05;13.00;;;7.50;79.90;;;;;;5052766;28;20401;-76
2021/01/26 01:37:46;;;;;;;18.52;13.52;;;7.50;80.00;;;;;;5051178;28;20461;-74
2021/01/26 01:40:19;;;;;;;17.77;12.68;;;7.50;80.00;;;;;;5052423;28;20044;-75
2021/01/26 01:42:47;;;;;;;21.63;13.45;;;7.50;80.00;;;;;;5051110;28;20032;-74
2021/01/26 01:45:15;;;;;;;20.38;13.98;;;7.50;80.00;;;;;;5052142;28;20040;-75
2021/01/26 01:47:45;;;;;;;21.98;13.93;;;7.50;80.00;;;;;;5051834;28;20486;-75
2021/01/26 01:50:44;;;;;;;20.80;14.23;;;7.50;80.00;;;;;;5052327;28;20029;-74
2021/01/26 01:53:26;;;;;;;22.02;15.10;;;7.50;80.00;;;;;;5052269;28;20049;-74
2021/01/26 01:56:02;;;;;;;22.52;15.43;;;7.50;80.00;;;;;;5052341;28;20547;-77
2021/01/26 01:58:34;;;;;;;22.45;14.88;;;7.50;80.00;;;;;;5051976;28;20037;-77
2021/01/26 02:01:16;;;;;;;22.67;14.75;;;7.50;80.00;;;;;;5050995;28;20029;-76
2021/01/26 02:03:50;;;;;;;24.40;15.73;;;7.50;79.90;;;;;;5050777;28;20029;-76
2021/01/26 02:06:17;;;;;;;25.20;16.30;;;7.50;80.00;;;;;;5051915;28;20048;-76
2021/01/26 02:09:09;;;;;;;24.30;15.27;;;7.50;80.00;;;;;;5050889;28;20048;-76
2021/01/26 02:11:35;;;;;;;27.95;17.70;;;7.50;80.10;;;;;;5052163;28;20037;-76
2021/01/26 02:14:02;;;;;;;28.42;17.63;;;7.50;80.10;;;;;;5054304;28;20041;-77
2021/01/26 02:16:31;;;;;;;26.17;16.83;;;7.50;80.00;;;;;;5055707;28;20500;-78
2021/01/26 02:19:05;;;;;;;35.63;20.27;;;7.50;80.00;;;;;;5054679;28;20040;-78
2021/01/26 02:22:02;;;;;;;30.07;18.10;;;7.50;80.10;;;;;;5055949;28;20135;-79
2021/01/26 02:24:47;;;;;;;;;;;7.40;80.10;;;;;;5056526;28;20029;-77
2021/01/26 02:27:29;;;;;;;33.38;18.70;;;7.40;80.20;;;;;;5054048;28;19920;-76
2021/01/26 02:30:17;;;;;;;33.95;20.15;;;7.40;80.30;;;;;;5056085;28;20059;-75
2021/01/26 02:33:37;;;;;;;36.42;20.77;;;7.40;80.20;;;;;;5056143;28;20037;-75
2021/01/26 02:36:33;;;;;;;36.33;20.13;;;7.40;80.20;;;;;;5013951;28;20415;-75
2021/01/26 02:39:23;;;;;;;37.03;21.13;;;7.50;80.20;;;;;;5055677;28;20067;-75
2021/01/26 02:42:22;;;;;;;34.95;19.92;;;7.40;80.20;;;;;;5055175;28;20437;-75
2021/01/26 02:45:00;;;;;;;37.20;21.98;;;7.40;80.20;;;;;;5055505;28;20036;-74
2021/01/26 02:47:46;;;;;;;40.92;23.52;;;7.40;80.20;;;;;;5055318;28;20052;-75
2021/01/26 02:50:51;;;;;;;41.85;23.92;;;7.40;80.20;;;;;;5043241;28;20045;-75
2021/01/26 02:53:46;;;;;;;39.92;22.20;;;7.40;80.20;;;;;;5045909;28;20045;-74
2021/01/26 02:56:30;;;;;;;42.55;24.40;;;7.40;80.20;;;;;;5054146;28;20515;-75
2021/01/26 02:59:03;;;;;;;37.60;22.00;;;7.40;80.30;;;;;;5055168;28;20166;-74
2021/01/26 03:01:42;;;;;;;38.75;20.83;;;7.40;80.40;;;;;;5053935;28;20162;-76
2021/01/26 03:04:24;;;;;;;42.25;23.65;;;7.40;80.50;;;;;;5055267;28;20025;-76
2021/01/26 03:06:53;;;;;;;38.42;20.70;;;7.40;80.50;;;;;;5053489;28;20037;-76
2021/01/26 03:09:26;;;;;;;44.38;24.08;;;7.40;80.40;;;;;;5055139;28;20040;-75
2021/01/26 03:12:00;;;;;;;39.83;22.10;;;7.40;80.50;;;;;;5054881;28;20111;-76
2021/01/26 03:15:12;;;;;;;40.60;22.05;;;7.40;80.60;;;;;;5054699;28;20064;-75
2021/01/26 03:17:44;;;;;;;47.08;25.75;;;7.40;80.60;;;;;;5052317;28;20052;-75
2021/01/26 03:20:36;;;;;;;39.90;22.23;;;7.40;80.50;;;;;;5054684;28;20037;-75
2021/01/26 03:23:31;;;;;;;41.53;23.10;;;7.40;80.60;;;;;;5054492;28;20032;-77
2021/01/26 03:26:00;;;;;;;43.05;23.05;;;7.40;80.60;;;;;;5054810;28;20065;-74
2021/01/26 03:28:29;;;;;;;45.90;24.70;;;7.40;80.60;;;;;;5053187;28;20040;-75
2021/01/26 03:30:58;;;;;;;42.67;22.23;;;7.40;80.60;;;;;;5054699;28;20095;-77
2021/01/26 03:33:33;;;;;;;41.42;22.95;;;7.40;80.60;;;;;;5054303;28;20493;-75
2021/01/26 03:36:00;;;;;;;42.63;23.90;;;7.40;80.60;;;;;;5054483;28;20047;-75
2021/01/26 03:38:32;;;;;;;39.70;22.73;;;7.40;80.60;;;;;;5053411;28;20049;-75
2021/01/26 03:41:00;;;;;;;40.65;23.25;;;7.40;80.60;;;;;;5052851;28;20033;-76
2021/01/26 03:43:27;;;;;;;46.90;24.80;;;7.40;80.60;;;;;;5054249;28;20025;-72
2021/01/26 03:46:09;;;;;;;41.42;23.80;;;7.30;80.50;;;;;;5036335;28;20163;-75
2021/01/26 03:48:50;;;;;;;41.20;22.70;;;7.30;80.50;;;;;;5054252;28;20032;-77
2021/01/26 03:51:32;;;;;;;40.67;21.60;;;7.40;80.60;;;;;;5053874;28;20416;-75
2021/01/26 03:54:01;;;;;;;42.05;22.67;;;7.30;80.60;;;;;;5053901;28;20033;-74
2021/01/26 03:57:01;;;;;;;38.80;22.17;;;7.30;80.60;;;;;;5053663;28;20041;-74
2021/01/26 03:59:53;;;;;;;38.65;21.23;;;7.30;80.70;;;;;;5036151;28;20036;-74
2021/01/26 04:03:08;;;;;;;38.55;21.75;;;7.30;80.70;;;;;;5053891;28;20051;-77
2021/01/26 04:05:57;;;;;;;34.83;19.50;;;7.30;80.80;;;;;;5040337;28;20067;-76
2021/01/26 04:08:35;;;;;;;36.30;20.45;;;7.30;80.80;;;;;;5052726;28;20045;-75
2021/01/26 04:11:16;;;;;;;43.10;22.42;;;7.30;80.90;;;;;;5053486;28;20409;-75
2021/01/26 04:14:05;;;;;;;43.80;23.27;;;7.30;80.90;;;;;;5053385;28;20033;-75
2021/01/26 04:16:57;;;;;;;36.53;20.83;;;7.20;81.00;;;;;;5068858;28;20048;-74
2021/01/26 04:19:26;;;;;;;40.03;22.65;;;7.30;81.00;;;;;;5052163;28;20497;-76
2021/01/26 04:21:53;;;;;;;38.97;22.15;;;7.30;80.90;;;;;;5052064;28;20091;-75
2021/01/26 04:24:21;;;;;;;39.30;22.25;;;7.30;80.80;;;;;;5053147;28;20037;-76
2021/01/26 04:26:49;;;;;;;39.78;22.35;;;7.30;80.90;;;;;;5051927;28;20056;-77
2021/01/26 04:29:16;;;;;;;38.72;21.15;;;7.30;80.90;;;;;;5052974;28;20136;-76
2021/01/26 04:31:42;;;;;;;39.08;23.35;;;7.30;80.90;;;;;;5068230;28;20481;-77
2021/01/26 04:34:08;;;;;;;31.65;18.50;;;7.30;80.90;;;;;;5053098;28;20033;-78
2021/01/26 04:36:34;;;;;;;38.13;21.85;;;7.20;80.90;;;;;;5051248;28;20052;-74
2021/01/26 04:39:00;;;;;;;35.58;20.75;;;7.20;80.90;;;;;;5053056;28;20397;-74
2021/01/26 04:41:43;;;;;;;37.80;21.98;;;7.20;81.00;;;;;;5051720;28;20480;-75
2021/01/26 04:44:21;;;;;;;40.45;21.20;;;7.20;81.10;;;;;;5051454;28;20037;-74
2021/01/26 04:47:01;;;;;;;38.17;19.92;;;7.20;81.00;;;;;;5050183;28;20041;-75
2021/01/26 04:50:00;;;;;;;40.83;21.45;;;7.20;81.00;;;;;;5052471;28;20123;-75
2021/01/26 04:52:53;;;;;;;42.42;22.63;;;7.20;81.00;;;;;;5016027;28;20128;-76
2021/01/26 04:55:35;;;;;;;42.60;22.58;;;7.30;81.10;;;;;;5052706;28;20064;-75
2021/01/26 04:58:32;;;;;;;41.20;23.52;;;7.30;81.10;;;;;;5052596;28;20446;-75
2021/01/26 05:01:30;;;;;;;38.20;21.60;;;7.20;81.00;;;;;;5052796;28;20033;-76
2021/01/26 05:04:15;;;;;;;45.45;24.08;;;7.30;81.10;;;;;;5051379;28;20095;-75
2021/01/26 05:06:54;;;;;;;39.53;22.90;;;7.30;81.00;;;;;;5052291;28;20095;-70
2021/01/26 05:09:31;;;;;;;41.08;22.77;;;7.30;81.00;;;;;;5051232;28;20036;-74
2021/01/26 05:12:00;;;;;;;43.83;23.30;;;7.30;81.20;;;;;;5051532;28;20037;-72
2021/01/26 05:14:35;;;;;;;48.33;23.05;;;7.20;81.20;;;;;;5052398;28;20128;-74
2021/01/26 05:17:47;;;;;;;41.75;24.02;;;7.30;81.10;;;;;;5053663;28;20029;-76
2021/01/26 05:20:18;;;;;;;43.63;23.38;;;7.20;81.00;;;;;;5036065;28;20047;-75
2021/01/26 05:23:04;;;;;;;40.35;21.67;;;7.30;81.00;;;;;;5050942;28;20040;-76
2021/01/26 05:25:30;;;;;;;;;;;7.30;81.00;;;;;;5052607;28;20130;-74
2021/01/26 05:27:57;;;;;;;42.75;22.20;;;7.30;81.10;;;;;;5035245;28;20331;-75
2021/01/26 05:30:29;;;;;;;38.92;21.80;;;7.30;81.10;;;;;;5052181;28;20033;-74
2021/01/26 05:33:03;;;;;;;38.20;21.67;;;7.20;81.20;;;;;;5052064;28;20052;-76
2021/01/26 05:35:29;;;;;;;37.95;19.38;;;7.30;81.20;;;;;;5051951;28;20032;-75
2021/01/26 05:37:55;;;;;;;37.83;21.70;;;7.30;81.20;;;;;;5052301;28;20398;-77
2021/01/26 05:40:43;;;;;;;38.80;21.80;;;7.30;81.20;;;;;;5052001;28;20075;-76
2021/01/26 05:43:15;;;;;;;36.55;21.10;;;7.30;81.30;;;;;;5051248;28;20044;-76
2021/01/26 05:48:09;;;;;;;66.53;17.15;;;7.30;85.30;;;;;;5110362;27;20331;-73
2021/01/26 05:50:38;;;;;;;274.27;27.38;;;8.40;96.00;;;;;;5109777;28;20099;-70
2021/01/26 05:53:30;;;;;;;208.75;27.27;;;9.00;96.30;;;;;;5109258;28;20028;-70
2021/01/26 05:56:11;;;;;;;196.23;25.02;;;9.60;94.80;;;;;;5109228;28;20036;-70
2021/01/26 05:58:43;;;;;;;148.77;23.65;;;10.10;93.10;;;;;;5109220;28;20035;-72
2021/01/26 06:01:11;;;;;;;124.57;22.05;;;10.50;91.80;;;;;;5110821;28;20126;-77
2021/01/26 06:03:37;;;;;;;104.57;21.10;;;10.70;90.80;;;;;;5109845;28;20522;-75
2021/01/26 06:06:05;;;;;;;86.32;18.27;;;11.10;90.30;;;;;;5110052;28;20043;-75
2021/01/26 06:08:33;;;;;;;285.10;29.38;;;11.50;88.70;;;;;;5109886;28;20065;-71
2021/01/26 19:33:55;;;;;;;20.70;8.90;;;11.30;87.20;;;;;;5131151;27;20301;-83
2021/01/26 19:36:22;;;;;;;19.55;10.30;;;11.50;90.00;;;;;;5131197;28;20035;-75
2021/01/26 19:38:48;;;;;;;21.30;10.48;;;11.70;89.80;;;;;;5131326;28;20035;-86
2021/01/26 19:41:35;;;;;;;14.18;11.15;;;11.80;89.10;;;;;;5081004;28;20047;-86
2021/01/26 19:44:01;;;;;;;15.23;11.50;;;11.90;87.90;;;;;;5112743;27;20027;-77
2021/01/26 19:46:27;;;;;;;18.38;11.43;;;11.90;87.30;;;;;;5112335;28;20117;-75
2021/01/26 19:48:54;;;;;;;17.38;11.02;;;11.80;87.20;;;;;;5095681;28;20123;-72
2021/01/26 19:51:25;;;;;;;15.60;11.27;;;11.70;85.80;;;;;;5131052;28;20096;-78
2021/01/26 19:53:51;;;;;;;13.55;10.93;;;11.60;85.20;;;;;;5112581;28;20036;-76
2021/01/26 19:56:19;;;;;;;18.05;11.15;;;11.40;85.50;;;;;;5130804;28;20547;-76
2021/01/26 19:58:45;;;;;;;13.98;11.13;;;11.50;84.70;;;;;;5112074;28;20042;-77
2021/01/26 20:01:11;;;;;;;14.65;10.80;;;11.30;84.90;;;;;;5112252;28;20058;-78
2021/01/26 20:03:38;;;;;;;13.82;10.68;;;11.30;84.90;;;;;;5095384;28;20034;-77
2021/01/26 20:06:04;;;;;;;12.73;10.07;;;11.30;83.00;;;;;;5111950;28;20031;-77
2021/01/26 20:08:30;;;;;;;15.23;11.35;;;11.10;84.40;;;;;;5111258;28;20126;-77
2021/01/26 20:10:56;;;;;;;14.98;10.57;;;11.10;84.40;;;;;;5130611;28;20119;-78
2021/01/26 20:13:22;;;;;;;14.18;10.82;;;11.20;83.80;;;;;;5112032;28;20504;-74
2021/01/26 20:15:48;;;;;;;12.07;10.30;;;11.20;83.70;;;;;;5130204;28;20046;-74
2021/01/26 20:18:14;;;;;;;11.85;9.98;;;11.10;83.10;;;;;;5112142;28;20400;-77
2021/01/26 20:20:40;;;;;;;13.57;9.70;;;11.00;83.60;;;;;;5130395;28;20038;-75
2021/01/26 20:23:06;;;;;;;13.43;9.88;;;11.00;84.00;;;;;;5130527;28;20031;-75
2021/01/26 20:25:33;;;;;;;12.32;10.10;;;11.00;84.80;;;;;;5111716;28;20035;-76
2021/01/26 20:27:59;;;;;;;16.15;9.65;;;11.10;85.00;;;;;;5111399;28;20055;-76
2021/01/26 20:30:30;;;;;;;11.73;9.40;;;11.10;84.20;;;;;;5112131;28;20035;-76
2021/01/26 20:32:57;;;;;;;13.85;10.63;;;11.10;83.40;;;;;;5094412;28;20062;-77
2021/01/26 20:35:25;;;;;;;13.25;10.35;;;10.90;83.70;;;;;;5094942;28;20023;-76
2021/01/26 20:37:52;;;;;;;13.43;9.95;;;10.90;83.90;;;;;;5097619;28;20027;-78
2021/01/26 20:40:23;;;;;;;13.18;9.38;;;10.90;84.10;;;;;;5130307;28;20043;-77
2021/01/26 20:42:50;;;;;;;12.63;9.60;;;10.90;83.70;;;;;;5108921;28;20374;-75
2021/01/26 20:45:18;;;;;;;12.82;9.60;;;10.80;83.40;;;;;;5097536;28;20027;-76
2021/01/26 20:47:47;;;;;;;12.20;10.13;;;10.80;83.20;;;;;;5080730;28;20092;-76
2021/01/26 20:50:14;;;;;;;11.77;9.90;;;10.70;83.00;;;;;;5097572;28;20495;-76
2021/01/26 20:52:41;;;;;;;12.43;9.45;;;10.70;83.50;;;;;;5097633;28;20411;-76
2021/01/26 20:55:11;;;;;;;16.15;10.32;;;10.70;83.60;;;;;;5097797;28;20487;-76
2021/01/26 20:57:37;;;;;;;13.52;9.80;;;10.70;84.70;;;;;;5116253;28;20027;-76
2021/01/26 21:00:08;;;;;;;12.50;9.73;;;10.70;83.90;;;;;;5097738;28;20032;-76
2021/01/26 21:02:34;;;;;;;13.25;10.15;;;10.70;83.30;;;;;;5097488;28;20031;-77
2021/01/26 21:05:00;;;;;;;12.90;9.75;;;10.60;84.10;;;;;;5097423;28;20028;-76
2021/01/26 21:07:26;;;;;;;14.57;10.20;;;10.60;84.00;;;;;;5115840;28;20030;-77
2021/01/26 21:09:53;;;;;;;13.85;9.57;;;10.60;83.40;;;;;;5097684;28;20118;-75
2021/01/26 21:12:18;;;;;;;12.52;9.90;;;10.50;83.20;;;;;;5097395;28;20035;-77
2021/01/26 21:14:44;;;;;;;11.85;9.65;;;10.60;83.70;;;;;;5097384;28;20126;-76
2021/01/26 21:17:11;;;;;;;12.05;9.20;;;10.50;83.80;;;;;;5097544;28;20031;-76
2021/01/26 21:19:36;;;;;;;13.90;9.75;;;10.50;83.60;;;;;;5115535;28;20035;-76
2021/01/26 21:22:03;;;;;;;12.32;10.20;;;10.50;83.70;;;;;;5097280;28;20475;-76
2021/01/26 21:24:29;;;;;;;12.40;9.82;;;10.40;83.10;;;;;;5097247;28;20035;-76
2021/01/26 21:26:55;;;;;;;11.90;10.10;;;10.40;83.20;;;;;;5115140;28;20040;-76
2021/01/26 21:29:21;;;;;;;11.80;9.55;;;10.40;83.00;;;;;;5080136;28;20032;-75
2021/01/26 21:31:47;;;;;;;13.18;9.65;;;10.40;83.00;;;;;;5071837;28;20122;-76
2021/01/26 21:34:13;;;;;;;12.35;9.77;;;10.40;83.30;;;;;;5056827;28;20040;-76
2021/01/26 21:36:39;;;;;;;11.68;9.55;;;10.30;83.30;;;;;;5073461;28;20028;-76
2021/01/26 21:39:06;;;;;;;12.43;9.25;;;10.30;83.30;;;;;;5056831;28;20177;-77
2021/01/26 21:41:34;;;;;;;13.32;9.73;;;10.30;83.40;;;;;;5074413;28;20040;-77
2021/01/26 21:44:00;;;;;;;11.15;9.90;;;10.20;83.20;;;;;;5073676;28;20052;-76
2021/01/26 21:46:27;;;;;;;11.73;10.13;;;10.30;83.50;;;;;;5073623;28;20062;-73
2021/01/26 21:48:53;;;;;;;11.15;9.23;;;10.20;83.20;;;;;;5072939;28;20481;-74
2021/01/26 21:51:19;;;;;;;13.90;10.45;;;10.20;83.50;;;;;;5074166;28;20051;-74
2021/01/26 21:53:46;;;;;;;12.43;10.00;;;10.10;83.80;;;;;;5073028;28;20032;-74
2021/01/26 21:56:14;;;;;;;12.43;9.95;;;10.10;83.50;;;;;;5073545;28;20048;-76
2021/01/26 21:58:40;;;;;;;10.75;9.38;;;10.10;83.80;;;;;;5056361;28;20572;-75
2021/01/26 22:01:07;;;;;;;13.27;9.75;;;10.10;83.80;;;;;;5072716;28;20060;-77
2021/01/26 22:03:33;;;;;;;11.63;9.60;;;10.10;83.80;;;;;;5074038;28;20043;-77
2021/01/26 22:05:59;;;;;;;12.90;9.73;;;10.10;83.30;;;;;;5055889;28;20039;-77
2021/01/26 22:08:25;;;;;;;12.98;10.27;;;10.10;83.40;;;;;;5073738;28;20107;-78
2021/01/26 22:10:51;;;;;;;13.57;10.52;;;10.10;83.40;;;;;;5056822;28;20146;-77
2021/01/26 22:13:17;;;;;;;12.32;9.50;;;9.90;83.40;;;;;;5055951;28;20044;-77
2021/01/26 22:15:43;;;;;;;11.80;10.52;;;9.90;83.40;;;;;;5056199;28;20078;-77
2021/01/26 22:18:09;;;;;;;12.75;10.13;;;9.80;83.70;;;;;;5073760;28;20423;-75
2021/01/26 22:20:37;;;;;;;14.10;10.80;;;9.90;83.30;;;;;;5073499;28;20044;-76
2021/01/26 22:23:07;;;;;;;13.93;11.75;;;9.80;84.00;;;;;;5055772;28;20130;-75
2021/01/26 22:25:36;;;;;;;14.32;11.25;;;9.90;83.90;;;;;;5055861;28;20085;-75
2021/01/26 22:28:06;;;;;;;12.50;10.80;;;9.90;83.50;;;;;;5055739;28;20064;-75
2021/01/26 22:30:32;;;;;;;15.02;11.57;;;9.90;83.70;;;;;;5055845;28;20043;-74
2021/01/26 22:32:58;;;;;;;13.48;11.43;;;9.80;83.20;;;;;;5102883;28;20055;-75
2021/01/26 22:35:28;;;;;;;13.35;11.25;;;9.90;83.60;;;;;;5095744;28;20556;-76
2021/01/26 22:37:55;;;;;;;13.63;11.68;;;9.80;83.30;;;;;;5114193;28;20038;-75
2021/01/26 22:40:25;;;;;;;13.32;11.43;;;9.70;83.20;;;;;;5114068;28;20031;-76
2021/01/26 22:42:51;;;;;;;13.15;11.75;;;9.70;83.30;;;;;;5095536;28;20487;-76
2021/01/26 22:45:18;;;;;;;14.55;11.60;;;9.70;83.10;;;;;;5079066;28;20034;-76
2021/01/26 22:47:45;;;;;;;15.13;11.68;;;9.70;83.90;;;;;;5095969;28;20035;-76
2021/01/26 22:50:12;;;;;;;13.18;11.77;;;9.70;83.40;;;;;;5113513;28;20114;-76
2021/01/26 22:52:38;;;;;;;13.82;11.52;;;9.60;83.60;;;;;;5095406;28;20081;-75
2021/01/26 22:55:05;;;;;;;13.52;12.02;;;9.60;83.80;;;;;;5114064;28;20077;-74
2021/01/26 22:57:31;;;;;;;14.13;12.02;;;9.60;84.00;;;;;;5078582;28;20038;-75
2021/01/26 22:59:57;;;;;;;15.43;13.02;;;9.60;83.60;;;;;;5078780;28;20122;-75
2021/01/26 23:02:24;;;;;;;16.08;12.85;;;9.60;84.20;;;;;;5095242;28;20474;-77
2021/01/26 23:04:50;;;;;;;12.95;11.00;;;9.60;84.20;;;;;;5113525;28;20100;-75
2021/01/26 23:07:16;;;;;;;15.60;12.50;;;9.60;84.40;;;;;;5113380;28;20032;-75
2021/01/26 23:09:42;;;;;;;13.70;11.90;;;9.70;84.50;;;;;;5113447;28;20039;-75
2021/01/26 23:12:08;;;;;;;14.82;11.63;;;9.60;84.50;;;;;;5095072;28;20038;-75
2021/01/26 23:14:34;;;;;;;12.18;10.80;;;9.60;84.50;;;;;;5113369;28;20039;-77
2021/01/26 23:17:00;;;;;;;13.45;11.63;;;9.50;84.50;;;;;;5113357;28;20072;-77
2021/01/26 23:19:26;;;;;;;12.85;10.90;;;9.40;85.00;;;;;;5113383;28;20039;-77
2021/01/26 23:21:52;;;;;;;14.85;10.90;;;9.40;85.10;;;;;;5095252;28;20032;-76
2021/01/26 23:24:18;;;;;;;12.85;10.85;;;9.50;85.20;;;;;;5113313;28;20506;-76
2021/01/26 23:26:44;;;;;;;12.25;10.68;;;9.50;85.10;;;;;;5113301;28;20035;-75
2021/01/26 23:29:12;;;;;;;12.23;10.77;;;9.50;85.30;;;;;;5095058;28;20062;-74
2021/01/26 23:31:38;;;;;;;11.35;10.15;;;9.50;84.80;;;;;;5094621;28;20055;-76
2021/01/26 23:34:04;;;;;;;12.35;10.57;;;9.50;85.00;;;;;;5113036;28;20499;-75
2021/01/26 23:36:30;;;;;;;12.50;9.80;;;9.50;84.70;;;;;;5095342;28;20534;-76
2021/01/26 23:38:56;;;;;;;12.60;10.02;;;9.50;85.00;;;;;;5078183;28;20039;-75
2021/01/26 23:41:22;;;;;;;12.52;9.82;;;9.50;85.80;;;;;;5112944;28;20065;-75
2021/01/26 23:43:48;;;;;;;10.60;9.45;;;9.50;86.00;;;;;;5094779;28;20063;-76
2021/01/26 23:46:14;;;;;;;12.15;10.05;;;9.40;85.60;;;;;;5113100;28;20066;-77
2021/01/26 23:48:40;;;;;;;11.63;9.70;;;9.30;85.50;;;;;;5094770;28;20045;-77
2021/01/26 23:51:07;;;;;;;12.93;9.63;;;9.40;85.80;;;;;;5113219;28;20039;-77
2021/01/26 23:53:33;;;;;;;11.95;9.55;;;9.30;86.00;;;;;;5112981;28;20036;-77
2021/01/26 23:56:03;;;;;;;11.13;9.68;;;9.30;86.10;;;;;;5113297;28;20036;-76
2021/01/26 23:58:29;;;;;;;10.82;9.25;;;9.40;85.80;;;;;;5078054;28;20171;-76
